Time;durP1;ratioP1;P1;durP2;ratioP2;P2;SDS_P1;SDS_P2;PMS_P1;PMS_P2;Temp;Humidity;BMP_temperature;BMP_pressure;BME280_temperature;BME280_humidity;BME280_pressure;Samples;Min_cycle;Max_cycle;Signal;HPM_P1;HPM_P2
2022/06/15 00:01:47;;;;;;;20.60;6.45;;;;;;;13.46;74.79;101995.44;10539142;28;20451;-74
2022/06/15 00:06:47;;;;;;;9.23;6.28;;;;;;;13.39;75.47;101983.59;10539260;28;20043;-74
2022/06/15 00:11:48;;;;;;;17.85;5.72;;;;;;;13.35;74.80;101982.31;10520319;28;20055;-74
2022/06/15 00:16:49;;;;;;;6.40;5.75;;;;;;;13.30;76.46;101973.03;10520226;28;20509;-74
2022/06/15 00:21:49;;;;;;;7.80;6.57;;;;;;;13.29;75.71;101983.06;10520677;28;20031;-74
2022/06/15 00:26:49;;;;;;;9.55;7.05;;;;;;;13.22;74.51;101979.38;10539218;28;20119;-75
2022/06/15 00:31:50;;;;;;;8.90;5.90;;;;;;;13.09;74.56;101984.66;10540103;28;20028;-74
2022/06/15 00:36:50;;;;;;;5.80;5.07;;;;;;;13.02;75.01;101982.69;10529042;28;20039;-74
2022/06/15 00:41:50;;;;;;;10.32;6.82;;;;;;;12.99;75.56;101993.09;10545870;28;20028;-74
2022/06/15 00:47:14;;;;;;;15.60;6.25;;;;;;;12.96;75.77;101977.97;10545763;28;20047;-74
2022/06/15 00:52:17;;;;;;;12.98;7.22;;;;;;;12.98;76.69;101978.63;10528432;28;20119;-74
2022/06/15 00:57:17;;;;;;;13.40;6.95;;;;;;;13.03;77.03;101975.34;10529052;28;20123;-74
2022/06/15 01:02:18;;;;;;;7.03;5.90;;;;;;;12.96;76.87;101966.28;10544683;28;20115;-74
2022/06/15 01:07:35;;;;;;;7.38;6.68;;;;;;;12.95;77.34;101959.13;10545429;28;20036;-74
2022/06/15 01:12:37;;;;;;;;;;;;;;;12.88;77.66;101948.16;10527261;28;20056;-74
2022/06/15 01:18:20;;;;;;;9.20;7.68;;;;;;;12.85;77.83;101959.41;10526125;28;19916;-74
2022/06/15 01:23:36;;;;;;;6.75;6.18;;;;;;;12.78;77.30;101963.91;10545495;28;20055;-74
2022/06/15 01:28:55;;;;;;;10.52;6.72;;;;;;;12.68;77.94;101956.03;10527040;28;20127;-74
2022/06/15 01:34:32;;;;;;;10.60;6.65;;;;;;;12.67;78.04;101961.66;10510670;28;20035;-74
2022/06/15 01:39:46;;;;;;;12.00;7.45;;;;;;;12.61;77.96;101957.81;10460138;28;20079;-74
2022/06/15 01:44:49;;;;;;;13.38;7.63;;;;;;;12.61;78.44;101957.81;10525537;28;20063;-74
2022/06/15 01:49:57;;;;;;;9.82;7.45;;;;;;;12.52;77.59;101948.03;10544200;28;20036;-74
2022/06/15 01:55:01;;;;;;;14.48;7.95;;;;;;;12.45;78.43;101947.09;10524995;28;20401;-74
2022/06/15 02:00:06;;;;;;;10.48;7.45;;;;;;;12.44;78.82;101939.94;10544484;28;20560;-75
2022/06/15 02:05:25;;;;;;;11.95;8.90;;;;;;;12.40;80.04;101931.31;10542907;28;20028;-74
2022/06/15 02:10:29;;;;;;;20.67;10.45;;;;;;;12.40;79.85;101933.22;10526163;28;20035;-74
2022/06/15 02:15:30;;;;;;;8.98;8.02;;;;;;;12.37;79.31;101930.84;10506684;28;20182;-74
2022/06/15 02:20:33;;;;;;;28.15;9.90;;;;;;;12.30;78.91;101926.16;10542161;28;20437;-74
2022/06/15 02:25:38;;;;;;;16.80;9.88;;;;;;;12.22;79.25;101918.09;10523487;28;20036;-74
2022/06/15 02:30:40;;;;;;;15.77;10.35;;;;;;;12.18;80.10;101919.47;10508141;28;20115;-74
2022/06/15 02:35:41;;;;;;;10.75;9.00;;;;;;;12.16;80.10;101920.72;10543693;28;20115;-74
2022/06/15 02:40:41;;;;;;;14.18;10.70;;;;;;;12.11;80.21;101923.94;10542024;28;20373;-74
2022/06/15 02:45:41;;;;;;;13.38;9.40;;;;;;;12.04;80.16;101926.56;10523757;28;20032;-74
2022/06/15 02:50:50;;;;;;;18.48;11.30;;;;;;;12.00;81.61;101918.97;10523736;28;20043;-74
2022/06/15 02:55:51;;;;;;;15.70;9.38;;;;;;;12.01;80.38;101915.22;10526225;28;20028;-74
2022/06/15 03:00:51;;;;;;;11.82;9.07;;;;;;;11.96;81.14;101909.47;10523798;28;20454;-73
2022/06/15 03:05:51;;;;;;;15.23;8.88;;;;;;;11.92;80.57;101917.16;10523823;28;20063;-74
2022/06/15 03:10:52;;;;;;;13.95;9.68;;;;;;;11.82;80.42;101911.94;10505062;28;20398;-74
2022/06/15 03:15:57;;;;;;;15.57;9.57;;;;;;;11.73;79.89;101915.72;10521970;28;20059;-74
2022/06/15 03:20:58;;;;;;;19.83;9.32;;;;;;;11.69;79.98;101910.84;10522064;28;20032;-74
2022/06/15 03:26:00;;;;;;;13.10;8.73;;;;;;;11.64;80.12;101920.34;10521924;28;20032;-74
2022/06/15 03:31:00;;;;;;;18.50;10.82;;;;;;;11.60;80.33;101915.47;10505287;28;20036;-73
2022/06/15 03:36:00;;;;;;;10.27;9.13;;;;;;;11.60;79.97;101923.63;10539218;28;20063;-74
2022/06/15 03:41:01;;;;;;;17.75;9.60;;;;;;;11.60;80.33;101915.47;10539498;28;20425;-74
2022/06/15 03:46:01;;;;;;;10.25;8.98;;;;;;;11.75;81.88;101927.25;10539637;28;20481;-74
2022/06/15 03:51:02;;;;;;;12.30;9.50;;;;;;;11.81;81.19;101923.81;10539415;28;20032;-74
2022/06/15 03:56:02;;;;;;;14.90;10.52;;;;;;;11.90;82.02;101930.06;10538772;28;20086;-74
2022/06/15 04:01:03;;;;;;;12.65;9.68;;;;;;;11.96;82.20;101923.91;10539210;28;20032;-74
2022/06/15 04:06:03;;;;;;;13.40;10.10;;;;;;;12.01;81.78;101924.19;10539118;28;20093;-74
2022/06/15 04:11:09;;;;;;;10.48;9.27;;;;;;;12.04;82.58;101912.97;10530565;28;20040;-74
2022/06/15 04:16:10;;;;;;;16.00;10.40;;;;;;;12.11;82.65;101926.66;10547831;28;20101;-73
2022/06/15 04:21:10;;;;;;;12.10;10.45;;;;;;;12.20;82.27;101927.44;10511554;28;20073;-74
2022/06/15 04:26:11;;;;;;;20.85;10.07;;;;;;;12.29;82.96;101929.91;10546124;28;20043;-74
2022/06/15 04:31:11;;;;;;;18.05;10.15;;;;;;;12.40;82.12;101927.78;10546796;28;20126;-74
2022/06/15 04:36:15;;;;;;;9.52;8.52;;;;;;;12.54;82.40;101930.53;10512374;28;20400;-74
2022/06/15 04:41:15;;;;;;;9.20;8.45;;;;;;;13.75;87.13;101919.31;10528021;28;20028;-74
2022/06/15 04:46:16;;;;;;;11.30;8.05;;;;;;;14.64;88.71;101923.28;10547684;28;20047;-74
2022/06/15 04:51:20;;;;;;;8.52;7.65;;;;;;;15.32;86.95;101920.72;10545858;28;20129;-73
2022/06/15 04:56:21;;;;;;;12.77;7.90;;;;;;;15.88;84.97;101919.63;10547249;28;20036;-75
2022/06/15 05:01:22;;;;;;;6.07;5.55;;;;;;;16.46;84.33;101914.41;10527465;28;20381;-73
2022/06/15 05:06:31;;;;;;;9.38;6.32;;;;;;;16.74;84.38;101925.06;10546674;28;20456;-76
2022/06/15 05:11:31;;;;;;;14.38;5.35;;;;;;;17.12;83.79;101918.88;10546498;28;20032;-77
2022/06/15 05:16:32;;;;;;;5.80;5.28;;;;;;;17.74;82.96;101916.50;10526470;28;20113;-75
2022/06/15 05:21:41;;;;;;;8.23;5.45;;;;;;;18.33;82.96;101917.13;10544183;28;20485;-74
2022/06/15 05:26:41;;;;;;;6.18;4.55;;;;;;;18.64;81.28;101907.97;10526992;28;20156;-75
2022/06/15 05:31:42;;;;;;;4.68;4.20;;;;;;;18.97;80.30;101906.78;10526573;28;20543;-75
2022/06/15 05:36:42;;;;;;;13.73;5.28;;;;;;;19.51;79.33;101910.56;10545827;28;20103;-75
2022/06/15 05:41:42;;;;;;;10.10;4.70;;;;;;;19.90;78.01;101914.66;10542927;28;20419;-75
2022/06/15 05:46:43;;;;;;;4.43;3.88;;;;;;;20.35;75.91;101918.78;10543426;28;20370;-76
2022/06/15 05:51:43;;;;;;;10.05;5.05;;;;;;;20.75;74.30;101918.94;10525039;28;20036;-75
2022/06/15 05:56:44;;;;;;;5.93;5.00;;;;;;;21.33;73.66;101922.66;10543442;28;20044;-76
2022/06/15 06:01:44;;;;;;;3.90;3.60;;;;;;;21.39;70.99;101923.63;10524512;28;20036;-76
2022/06/15 06:06:45;;;;;;;6.50;4.43;;;;;;;21.75;70.43;101922.41;10542529;28;20040;-76
2022/06/15 06:11:45;;;;;;;4.97;3.70;;;;;;;22.34;67.60;101925.66;10523599;28;20032;-75
2022/06/15 06:16:46;;;;;;;10.57;4.93;;;;;;;22.48;64.80;101912.34;10542709;28;20135;-76
2022/06/15 06:21:46;;;;;;;6.63;5.70;;;;;;;22.93;64.97;101912.19;10541772;28;20389;-76
2022/06/15 06:26:46;;;;;;;5.00;4.60;;;;;;;23.51;63.03;101915.38;10541794;28;20035;-77
2022/06/15 06:31:47;;;;;;;11.38;4.45;;;;;;;23.95;62.16;101917.25;10539642;28;20028;-77
2022/06/15 06:36:47;;;;;;;10.13;4.28;;;;;;;24.08;59.96;101914.03;10542271;28;20028;-76
2022/06/15 06:41:48;;;;;;;4.88;3.30;;;;;;;24.42;59.51;101917.41;10541404;28;20435;-76
2022/06/15 06:46:49;;;;;;;6.30;4.10;;;;;;;24.85;56.91;101925.69;10540660;28;20024;-77
2022/06/15 06:51:49;;;;;;;7.82;4.38;;;;;;;24.98;55.93;101925.19;10523444;28;20032;-76
2022/06/15 06:56:50;;;;;;;4.20;3.90;;;;;;;25.10;56.15;101925.81;10522720;28;20376;-77
2022/06/15 07:01:50;;;;;;;5.32;4.80;;;;;;;25.27;56.12;101932.03;10540067;28;20028;-77
2022/06/15 07:06:51;;;;;;;5.28;4.57;;;;;;;25.24;52.89;101934.53;10542797;28;20077;-76
2022/06/15 07:11:51;;;;;;;8.05;4.72;;;;;;;25.59;53.34;101932.94;10505410;28;20380;-76
2022/06/15 07:16:51;;;;;;;4.38;3.90;;;;;;;25.92;48.47;101934.44;10521598;28;20497;-77
2022/06/15 07:21:52;;;;;;;5.57;4.00;;;;;;;26.18;49.25;101938.06;10523608;28;20061;-77
2022/06/15 07:26:53;;;;;;;13.85;4.32;;;;;;;26.58;52.19;101945.56;10522042;28;20035;-77
2022/06/15 07:31:54;;;;;;;5.60;4.43;;;;;;;27.06;51.16;101946.00;10524025;28;20062;-76
2022/06/15 07:36:54;;;;;;;9.57;4.30;;;;;;;27.45;49.83;101945.31;10524919;28;20028;-77
2022/06/15 07:41:56;;;;;;;5.13;3.63;;;;;;;27.89;51.06;101944.53;10539552;28;20111;-77
2022/06/15 07:52:15;;;;;;;3.47;2.30;;;;;;;28.22;47.15;101939.25;10547612;28;20040;-77
2022/06/15 07:57:16;;;;;;;5.03;3.55;;;;;;;28.44;44.91;101928.50;10547711;28;20044;-76
2022/06/15 08:02:17;;;;;;;6.55;2.83;;;;;;;28.73;45.42;101941.56;10532379;28;20406;-77
2022/06/15 08:07:17;;;;;;;7.93;3.15;;;;;;;28.60;39.75;101940.31;10547965;28;20070;-77
2022/06/15 08:12:19;;;;;;;2.45;2.28;;;;;;;27.80;38.35;101940.69;10530402;28;20496;-76
2022/06/15 08:17:24;;;;;;;4.38;2.85;;;;;;;27.98;40.08;101933.56;10512543;28;20389;-76
2022/06/15 08:22:24;;;;;;;5.25;3.33;;;;;;;28.50;36.49;101934.84;10546886;28;20040;-76
2022/06/15 08:27:25;;;;;;;5.28;2.65;;;;;;;28.44;40.47;101939.63;10529563;28;20024;-76
2022/06/15 08:32:25;;;;;;;9.15;2.35;;;;;;;29.02;38.52;101937.94;10546605;28;20036;-76
2022/06/15 08:37:26;;;;;;;4.00;3.33;;;;;;;28.70;37.06;101931.00;10511873;28;20032;-76
2022/06/15 08:42:58;;;;;;;16.10;2.70;;;;;;;29.25;38.03;101939.88;10528747;28;20028;-76
2022/06/15 08:48:04;;;;;;;2.88;2.63;;;;;;;29.06;37.82;101941.78;10527659;28;20028;-76
2022/06/15 08:53:22;;;;;;;4.32;2.00;;;;;;;28.76;37.30;101937.38;10527014;28;20081;-76
2022/06/15 08:58:51;;;;;;;11.30;3.63;;;;;;;28.43;36.95;101924.06;10526666;28;20043;-76
2022/06/15 09:04:07;;;;;;;6.57;2.45;;;;;;;28.96;38.10;101929.59;10545795;28;20050;-76
2022/06/15 09:09:30;;;;;;;5.27;2.70;;;;;;;28.30;33.75;101933.03;10527971;28;20028;-76
2022/06/15 09:14:42;;;;;;;2.72;2.30;;;;;;;27.93;34.93;101920.53;10511986;28;20079;-77
2022/06/15 09:19:53;;;;;;;6.68;2.65;;;;;;;27.68;33.53;101934.59;10510422;28;20028;-76
2022/06/15 09:24:58;;;;;;;2.13;1.92;;;;;;;27.93;33.88;101923.31;10511197;28;20024;-76
2022/06/15 09:30:03;;;;;;;3.70;2.20;;;;;;;28.28;33.97;101919.41;10510250;28;20058;-77
2022/06/15 09:35:17;;;;;;;5.18;2.38;;;;;;;28.82;35.61;101913.88;10527332;28;20373;-76
2022/06/15 09:40:18;;;;;;;8.60;2.95;;;;;;;28.90;34.26;101916.84;10544044;28;20032;-77
2022/06/15 09:45:28;;;;;;;4.80;2.38;;;;;;;28.83;35.56;101919.16;10543586;28;20385;-76
2022/06/15 09:50:36;;;;;;;2.13;1.73;;;;;;;29.09;34.10;101916.09;10525540;28;20028;-76
2022/06/15 09:55:45;;;;;;;4.38;2.33;;;;;;;29.17;33.24;101927.44;10525176;28;20028;-77
2022/06/15 10:00:46;;;;;;;3.83;2.90;;;;;;;29.26;31.29;101922.03;10543375;28;20032;-76
2022/06/15 10:05:46;;;;;;;2.80;1.85;;;;;;;29.03;33.57;101922.84;10489757;28;20035;-76
2022/06/15 10:10:55;;;;;;;3.08;2.78;;;;;;;29.63;34.95;101917.63;10507299;28;20024;-76
2022/06/15 10:16:12;;;;;;;3.13;2.75;;;;;;;29.27;29.95;101906.94;10524209;28;20052;-77
2022/06/15 10:21:12;;;;;;;1.95;1.83;;;;;;;29.28;30.58;101913.34;10526251;28;20123;-76
2022/06/15 10:26:27;;;;;;;2.57;2.37;;;;;;;29.27;30.52;101915.31;10541589;28;20111;-76
2022/06/15 10:31:32;;;;;;;1.90;1.80;;;;;;;29.11;31.66;101925.81;10542706;28;20031;-76
2022/06/15 10:36:33;;;;;;;6.57;1.98;;;;;;;29.27;29.80;101915.31;10524557;28;20055;-76
2022/06/15 10:41:45;;;;;;;4.38;2.72;;;;;;;28.97;29.67;101916.47;10506666;28;20028;-76
2022/06/15 10:47:02;;;;;;;6.63;2.42;;;;;;;29.36;32.23;101926.63;10540851;28;20039;-76
2022/06/15 10:52:13;;;;;;;5.40;2.58;;;;;;;30.09;32.30;101919.69;10522848;28;20028;-75
2022/06/15 11:02:42;;;;;;;2.63;2.42;;;;;;;29.83;31.68;101913.66;10540242;28;20462;-75
2022/06/15 11:07:45;;;;;;;3.50;2.97;;;;;;;30.24;32.38;101907.44;10507730;28;20032;-76
2022/06/15 11:12:49;;;;;;;9.60;2.70;;;;;;;30.11;28.98;101901.47;10540663;28;20051;-76
2022/06/15 11:18:01;;;;;;;2.60;2.45;;;;;;;30.47;32.04;101889.69;10539780;28;20038;-76
2022/06/15 11:23:24;;;;;;;6.30;2.60;;;;;;;30.88;30.67;101888.06;10538127;28;20028;-76
2022/06/15 11:28:29;;;;;;;3.50;2.78;;;;;;;30.62;31.42;101888.56;10521225;28;20044;-76
2022/06/15 11:33:39;;;;;;;3.33;2.83;;;;;;;31.20;33.30;101878.72;10540537;28;20036;-76
2022/06/15 11:38:52;;;;;;;13.05;2.45;;;;;;;31.33;32.44;101872.28;10542677;28;20320;-76
2022/06/15 11:43:54;;;;;;;5.38;2.97;;;;;;;31.77;32.60;101870.69;10490470;28;20039;-76
2022/06/15 11:49:27;;;;;;;2.75;2.55;;;;;;;31.34;30.65;101864.72;10505053;28;20111;-76
2022/06/15 11:54:30;;;;;;;3.75;2.95;;;;;;;30.99;32.17;101861.56;10538856;28;20028;-76
2022/06/15 11:59:33;;;;;;;4.50;2.95;;;;;;;30.42;32.13;101864.63;10521710;28;20036;-76
2022/06/15 12:05:13;;;;;;;3.40;2.85;;;;;;;29.82;30.35;101870.97;10538817;28;20036;-75
2022/06/15 12:10:19;;;;;;;6.47;2.75;;;;;;;30.18;31.47;101861.97;10521537;28;20063;-76
2022/06/15 12:15:40;;;;;;;3.45;3.05;;;;;;;30.28;32.59;101841.41;10520665;28;20405;-76
2022/06/15 12:20:59;;;;;;;6.25;2.17;;;;;;;30.95;31.91;101838.97;10520391;28;20036;-75
2022/06/15 12:26:22;;;;;;;5.50;2.30;;;;;;;30.89;30.22;101842.16;10539361;28;20105;-76
2022/06/15 12:31:29;;;;;;;3.95;2.22;;;;;;;30.36;31.22;101846.31;10528872;28;20378;-75
2022/06/15 12:36:47;;;;;;;2.20;2.03;;;;;;;30.96;33.27;101832.25;10513167;28;20093;-75
2022/06/15 12:47:13;;;;;;;3.08;2.13;;;;;;;31.33;32.86;101830.28;10529909;28;20071;-76
2022/06/15 12:52:22;;;;;;;3.15;2.22;;;;;;;31.28;29.33;101844.41;10546759;28;20468;-75
2022/06/15 12:57:44;;;;;;;2.33;2.15;;;;;;;30.61;32.12;101849.75;10528623;28;20146;-75
2022/06/15 13:03:07;;;;;;;2.92;1.80;;;;;;;30.82;29.77;101851.00;10527952;28;20136;-76
2022/06/15 13:08:16;;;;;;;2.00;1.85;;;;;;;30.81;31.83;101850.16;10528156;28;20036;-75
2022/06/15 13:13:33;;;;;;;5.10;2.17;;;;;;;30.97;32.39;101866.63;10545219;28;20470;-76
2022/06/15 13:18:42;;;;;;;1.85;1.75;;;;;;;31.23;31.69;101858.50;10544765;28;20093;-76
2022/06/15 13:23:47;;;;;;;5.82;2.13;;;;;;;31.03;30.48;101855.00;10526015;28;20050;-75
2022/06/15 13:29:01;;;;;;;2.13;1.85;;;;;;;30.41;31.67;101862.13;10509855;28;20051;-75
2022/06/15 13:34:03;;;;;;;6.03;3.63;;;;;;;29.67;32.58;101857.25;10544021;28;20464;-78
2022/06/15 13:39:24;;;;;;;4.88;3.08;;;;;;;29.63;33.54;101848.66;10527411;28;20177;-76
2022/06/15 13:44:28;;;;;;;8.35;2.42;;;;;;;29.42;34.50;101852.88;10544111;28;20081;-76
2022/06/15 13:49:32;;;;;;;2.60;2.13;;;;;;;30.38;34.39;101841.25;10542764;28;20039;-76
2022/06/15 13:54:59;;;;;;;2.42;2.05;;;;;;;30.38;33.84;101841.25;10525281;28;20028;-76
2022/06/15 14:00:12;;;;;;;3.00;2.70;;;;;;;30.65;34.16;101850.78;10508989;28;20032;-75
2022/06/15 14:05:31;;;;;;;3.85;3.17;;;;;;;29.58;33.29;101845.94;10509709;28;20031;-75
2022/06/15 14:10:38;;;;;;;3.17;2.88;;;;;;;30.01;34.57;101844.97;10542697;28;20064;-75
2022/06/15 14:16:06;;;;;;;4.90;3.35;;;;;;;30.34;35.08;101855.00;10543988;28;20047;-76
2022/06/15 14:21:33;;;;;;;2.33;2.15;;;;;;;30.30;34.76;101850.31;10522507;28;20036;-75
2022/06/15 14:26:33;;;;;;;7.75;3.05;;;;;;;30.06;35.55;101856.88;10542980;28;20114;-75
2022/06/15 14:31:35;;;;;;;5.53;2.85;;;;;;;30.10;35.02;101848.72;10507650;28;20123;-76
2022/06/15 14:36:35;;;;;;;5.63;2.28;;;;;;;29.97;35.47;101829.97;10523929;28;20032;-76
2022/06/15 14:41:36;;;;;;;9.00;2.88;;;;;;;28.63;34.43;101835.78;10506433;28;20469;-76
2022/06/15 14:46:41;;;;;;;7.97;3.05;;;;;;;28.88;35.55;101823.50;10541796;28;20032;-76
2022/06/15 14:51:41;;;;;;;4.72;2.35;;;;;;;29.54;35.34;101825.31;10540853;28;20093;-75
2022/06/15 14:56:48;;;;;;;4.38;2.80;;;;;;;28.90;34.34;101833.19;10522953;28;20097;-76
2022/06/15 15:02:05;;;;;;;2.85;2.45;;;;;;;27.96;34.71;101839.22;10522696;28;20031;-75
2022/06/15 15:12:42;;;;;;;4.82;1.92;;;;;;;27.57;36.06;101828.94;10540850;28;20476;-75
2022/06/15 15:17:58;;;;;;;6.15;2.17;;;;;;;27.05;36.69;101835.06;10542148;28;20036;-75
2022/06/15 15:22:59;;;;;;;2.65;2.45;;;;;;;27.57;35.96;101823.38;10523275;28;20131;-75
2022/06/15 15:38:50;;;;;;;5.72;3.03;;;;;;;28.50;35.10;101826.19;10541396;28;20036;-75
2022/06/15 15:43:50;;;;;;;2.33;2.13;;;;;;;28.07;35.20;101817.66;10524314;28;20039;-75
2022/06/15 15:48:51;;;;;;;2.53;2.33;;;;;;;27.86;35.87;101805.91;10540224;28;20492;-75
2022/06/15 15:53:52;;;;;;;2.65;1.63;;;;;;;27.55;34.06;101802.53;10539836;28;20614;-75
2022/06/15 15:58:52;;;;;;;5.75;2.60;;;;;;;27.01;35.90;101798.69;10521891;28;20040;-75
2022/06/15 16:03:52;;;;;;;3.93;2.50;;;;;;;27.08;36.43;101793.63;10524900;28;20058;-75
2022/06/15 16:08:53;;;;;;;3.37;2.07;;;;;;;26.86;35.94;101777.34;10548118;28;20733;-75
2022/06/15 16:13:53;;;;;;;5.50;2.63;;;;;;;26.19;36.35;101776.75;10548200;28;20668;-75
2022/06/15 16:18:53;;;;;;;6.70;2.95;;;;;;;25.96;37.01;101771.81;10529764;28;20108;-75
2022/06/15 16:23:56;;;;;;;3.65;2.30;;;;;;;26.05;36.98;101778.44;10548352;28;20039;-74
2022/06/15 16:28:57;;;;;;;2.60;1.85;;;;;;;25.10;36.98;101780.88;10529212;28;20024;-74
2022/06/15 16:33:58;;;;;;;2.88;2.65;;;;;;;25.02;38.21;101779.47;10529887;28;20473;-75
2022/06/15 16:38:58;;;;;;;3.38;2.63;;;;;;;24.99;38.54;101789.16;10547682;28;20036;-75
2022/06/15 16:43:59;;;;;;;5.68;2.28;;;;;;;24.74;39.84;101795.44;10528732;28;20036;-75
2022/06/15 16:48:59;;;;;;;4.97;3.75;;;;;;;24.44;40.16;101806.38;10547462;28;20481;-75
2022/06/15 16:54:01;;;;;;;4.07;2.83;;;;;;;24.24;40.46;101799.59;10547989;28;20028;-75
2022/06/15 16:59:07;;;;;;;5.10;2.45;;;;;;;24.00;41.05;101803.88;10512271;28;20032;-75
2022/06/15 17:04:07;;;;;;;7.97;2.87;;;;;;;23.85;41.44;101805.41;10528201;28;20036;-75
2022/06/15 17:09:08;;;;;;;9.18;2.72;;;;;;;23.76;41.23;101807.00;10546000;28;20056;-75
2022/06/15 17:14:09;;;;;;;5.32;2.58;;;;;;;23.56;43.04;101804.03;10545630;28;20381;-75
2022/06/15 17:19:09;;;;;;;7.22;2.80;;;;;;;23.34;43.54;101799.41;10544945;28;20040;-75
2022/06/15 17:24:10;;;;;;;3.08;2.55;;;;;;;23.09;43.58;101793.59;10526766;28;20043;-75
2022/06/15 17:29:11;;;;;;;7.18;3.60;;;;;;;23.08;43.62;101781.72;10526317;28;20028;-75
2022/06/15 17:34:11;;;;;;;2.72;2.53;;;;;;;23.30;43.87;101800.19;10526340;28;20048;-75
2022/06/15 17:39:12;;;;;;;3.53;2.72;;;;;;;23.43;45.72;101800.59;10544531;28;20043;-75
2022/06/15 17:44:12;;;;;;;8.10;2.80;;;;;;;23.40;45.87;101795.59;10509450;28;20362;-75
2022/06/15 17:49:14;;;;;;;3.00;2.78;;;;;;;23.34;45.48;101796.63;10543728;28;20024;-75
2022/06/15 17:54:16;;;;;;;3.80;2.70;;;;;;;23.38;45.44;101802.47;10526581;28;20064;-74
2022/06/15 17:59:18;;;;;;;1.83;1.73;;;;;;;23.25;45.11;101794.59;10543953;28;20043;-75
2022/06/15 18:04:19;;;;;;;2.85;2.38;;;;;;;23.16;45.70;101799.75;10510292;28;20382;-74
2022/06/15 18:09:22;;;;;;;4.50;2.53;;;;;;;23.06;45.04;101794.13;10542916;28;20043;-74
2022/06/15 18:14:39;;;;;;;2.20;1.63;;;;;;;22.78;44.88;101792.38;10525034;28;20059;-74
2022/06/15 18:19:42;;;;;;;11.43;3.67;;;;;;;22.47;45.97;101800.28;10510728;28;20039;-74
2022/06/15 18:24:42;;;;;;;3.55;2.30;;;;;;;22.33;46.52;101796.22;10542403;28;20037;-75
2022/06/15 18:29:43;;;;;;;3.05;2.25;;;;;;;22.22;46.78;101798.00;10541854;28;20035;-74
2022/06/15 18:34:44;;;;;;;8.52;2.65;;;;;;;22.09;47.28;101801.91;10541962;28;20039;-74
2022/06/15 18:39:45;;;;;;;3.97;2.50;;;;;;;21.88;47.76;101799.91;10542696;28;20051;-70
2022/06/15 18:50:25;;;;;;;3.17;2.22;;;;;;;21.55;48.89;101812.59;10540736;28;20069;-72
2022/06/15 18:55:27;;;;;;;3.10;2.25;;;;;;;21.32;49.11;101819.06;10523384;28;20092;-72
2022/06/15 19:00:29;;;;;;;4.28;2.10;;;;;;;21.08;50.60;101819.13;10505947;28;20035;-72
2022/06/15 19:05:30;;;;;;;2.92;2.15;;;;;;;20.87;51.94;101817.91;10522643;28;20102;-71
2022/06/15 19:10:31;;;;;;;5.13;2.65;;;;;;;20.65;51.04;101816.91;10541143;28;20032;-72
2022/06/15 19:15:32;;;;;;;2.78;2.25;;;;;;;20.48;51.98;101813.16;10523710;28;20102;-72
2022/06/15 19:20:34;;;;;;;4.50;2.90;;;;;;;20.38;51.65;101831.13;10506532;28;20024;-70
2022/06/15 19:25:37;;;;;;;3.60;2.75;;;;;;;20.42;52.08;101843.34;10539832;28;20377;-70
2022/06/15 19:30:38;;;;;;;4.47;2.88;;;;;;;20.41;52.92;101852.63;10522238;28;20043;-70
2022/06/15 19:35:39;;;;;;;2.92;2.67;;;;;;;20.36;53.40;101857.22;10539604;28;20040;-71
2022/06/15 19:40:39;;;;;;;3.38;2.58;;;;;;;20.33;53.83;101864.03;10539457;28;20032;-75
2022/06/15 19:45:40;;;;;;;3.40;2.92;;;;;;;20.17;54.65;101853.75;10521520;28;20040;-69
2022/06/15 19:50:41;;;;;;;3.35;3.05;;;;;;;20.04;53.94;101857.56;10506389;28;20032;-71
2022/06/15 19:55:43;;;;;;;5.53;2.83;;;;;;;19.86;54.10;101857.63;10539540;28;20040;-70
2022/06/15 20:00:43;;;;;;;7.22;2.90;;;;;;;19.66;55.70;101861.53;10538759;28;20058;-70
2022/06/15 20:05:44;;;;;;;11.20;3.05;;;;;;;19.54;55.95;101860.63;10504626;28;20031;-71
2022/06/15 20:10:45;;;;;;;3.38;3.10;;;;;;;19.48;54.91;101875.28;10539085;28;20036;-71
2022/06/15 20:15:46;;;;;;;4.57;2.97;;;;;;;19.36;55.80;101871.66;10487702;28;20047;-72
2022/06/15 20:20:47;;;;;;;8.52;3.67;;;;;;;19.26;57.47;101889.53;10520933;28;20362;-74
2022/06/15 20:25:50;;;;;;;6.55;3.35;;;;;;;19.20;55.48;101890.44;10520847;28;20040;-75
2022/06/15 20:30:50;;;;;;;5.95;3.42;;;;;;;19.11;54.91;101902.81;10522457;28;20036;-74
2022/06/15 20:35:51;;;;;;;4.18;3.00;;;;;;;18.95;55.28;101903.44;10521035;28;20036;-74
2022/06/15 20:40:51;;;;;;;14.73;3.47;;;;;;;18.86;56.91;101913.03;10539698;28;20032;-74
2022/06/15 20:45:52;;;;;;;5.90;2.75;;;;;;;18.77;57.62;101907.84;10538532;28;20281;-75
2022/06/15 20:50:53;;;;;;;3.28;2.60;;;;;;;18.80;56.28;101910.16;10508428;28;20032;-75
2022/06/15 21:01:12;;;;;;;5.03;3.58;;;;;;;18.61;57.59;101908.44;10546286;28;20036;-75
2022/06/15 21:06:12;;;;;;;5.88;2.95;;;;;;;18.46;60.65;101903.28;10545746;28;20032;-75
2022/06/15 21:21:51;;;;;;;4.60;3.95;;;;;;;18.19;57.72;101923.75;10545914;28;20036;-75
2022/06/15 21:26:52;;;;;;;4.03;3.72;;;;;;;18.20;57.01;101939.16;10527509;28;20028;-74
2022/06/15 21:31:52;;;;;;;4.63;3.28;;;;;;;18.13;59.47;101941.97;10544172;28;20036;-74
2022/06/15 21:36:53;;;;;;;4.43;3.70;;;;;;;18.10;58.64;101935.03;10543798;28;20040;-74
2022/06/15 21:41:58;;;;;;;4.90;3.58;;;;;;;18.03;58.30;101922.44;10545206;28;20028;-74
2022/06/15 21:47:01;;;;;;;3.95;3.55;;;;;;;18.00;58.50;101928.38;10545530;28;20060;-74
2022/06/15 21:52:01;;;;;;;4.78;3.03;;;;;;;17.96;58.49;101936.16;10526377;28;20502;-74
2022/06/15 21:57:04;;;;;;;6.03;3.63;;;;;;;17.94;58.33;101934.72;10544887;28;20036;-74
2022/06/15 22:02:05;;;;;;;4.60;3.83;;;;;;;17.76;61.03;101928.06;10542372;28;20032;-74
2022/06/15 22:07:06;;;;;;;7.18;4.10;;;;;;;17.64;61.64;101922.44;10508860;28;20086;-74
2022/06/15 22:12:06;;;;;;;13.00;4.25;;;;;;;17.52;62.63;101931.59;10510842;28;20070;-74
2022/06/15 22:17:08;;;;;;;8.45;4.65;;;;;;;17.45;60.96;101926.09;10545767;28;20070;-74
2022/06/15 22:22:08;;;;;;;6.57;4.47;;;;;;;17.38;63.29;101934.34;10523990;28;20078;-74
2022/06/15 22:27:09;;;;;;;10.05;5.50;;;;;;;17.33;63.25;101934.19;10524494;28;20431;-74
2022/06/15 22:32:09;;;;;;;3.47;3.17;;;;;;;17.25;63.03;101926.19;10542527;28;20067;-74
2022/06/15 22:37:10;;;;;;;10.43;4.38;;;;;;;17.15;63.11;101936.78;10543508;28;20036;-74
2022/06/15 22:42:11;;;;;;;4.20;3.80;;;;;;;17.03;65.92;101938.50;10524488;28;20028;-74
2022/06/15 22:47:11;;;;;;;3.75;3.45;;;;;;;16.94;64.53;101927.81;10524466;28;20062;-74
2022/06/15 22:52:12;;;;;;;5.57;3.38;;;;;;;16.85;67.25;101914.56;10541911;28;20429;-74
2022/06/15 22:57:12;;;;;;;6.47;3.47;;;;;;;16.83;67.00;101925.72;10523782;28;20044;-74
2022/06/15 23:02:13;;;;;;;4.28;3.55;;;;;;;16.73;65.72;101933.50;10541539;28;20064;-74
2022/06/15 23:07:13;;;;;;;4.30;3.00;;;;;;;16.60;65.83;101931.63;10541088;28;20477;-74
2022/06/15 23:12:13;;;;;;;4.25;3.60;;;;;;;16.46;66.25;101928.06;10521981;28;20056;-73
2022/06/15 23:17:14;;;;;;;11.50;5.03;;;;;;;16.36;65.62;101938.56;10522706;28;20059;-74
2022/06/15 23:22:14;;;;;;;4.70;3.75;;;;;;;16.23;64.28;101960.44;10541726;28;20042;-74
2022/06/15 23:27:15;;;;;;;4.40;4.00;;;;;;;16.14;64.71;101943.38;10540446;28;20468;-74
2022/06/15 23:32:15;;;;;;;5.43;4.78;;;;;;;16.07;66.08;101952.66;10521804;28;20036;-74
2022/06/15 23:37:18;;;;;;;5.72;4.93;;;;;;;16.01;68.41;101957.88;10539610;28;20027;-74
2022/06/15 23:47:29;;;;;;;4.35;3.83;;;;;;;15.90;69.59;101953.03;10524296;28;20446;-74
2022/06/15 23:52:29;;;;;;;4.40;4.00;;;;;;;15.86;69.14;101949.06;10539989;28;20063;-74
2022/06/15 23:57:30;;;;;;;6.65;4.93;;;;;;;15.77;70.37;101945.66;10522455;28;20032;-74
